Time;durP1;ratioP1;P1;durP2;ratioP2;P2;SDS_P1;SDS_P2;PMS_P1;PMS_P2;Temp;Humidity;BMP_temperature;BMP_pressure;BME280_temperature;BME280_humidity;BME280_pressure;Samples;Min_cycle;Max_cycle;Signal;HPM_P1;HPM_P2
2024/01/03 00:00:30;;;;;;;0.40;0.40;;;;;;;6.19;100.00;97689.38;4997350;28;20030;-74
2024/01/03 00:02:56;;;;;;;0.40;0.40;;;;;;;6.17;100.00;97691.47;5012143;28;20045;-75
2024/01/03 00:05:26;;;;;;;0.50;0.50;;;;;;;6.16;100.00;97684.50;4996855;28;20045;-75
2024/01/03 00:07:55;;;;;;;0.40;0.40;;;;;;;6.15;100.00;97686.34;5012997;28;20472;-73
2024/01/03 00:10:23;;;;;;;0.40;0.40;;;;;;;6.15;100.00;97682.88;4996736;28;20030;-74
2024/01/03 00:12:54;;;;;;;0.40;0.40;;;;;;;6.13;100.00;97679.59;4996811;28;20044;-73
2024/01/03 00:15:35;;;;;;;0.50;0.50;;;;;;;6.10;100.00;97680.88;4980435;28;20484;-74
2024/01/03 00:18:04;;;;;;;0.40;0.40;;;;;;;6.09;100.00;97683.78;4996606;28;20037;-74
2024/01/03 00:20:32;;;;;;;0.40;0.40;;;;;;;6.07;100.00;97680.50;4996415;28;20076;-74
2024/01/03 00:23:05;;;;;;;0.50;0.50;;;;;;;6.09;100.00;97683.78;5012614;28;20029;-73
2024/01/03 00:25:32;;;;;;;0.40;0.40;;;;;;;6.09;100.00;97686.44;4964987;28;20477;-74
2024/01/03 00:27:59;;;;;;;0.43;0.43;;;;;;;6.08;100.00;97687.47;5011963;28;20037;-74
2024/01/03 00:30:25;;;;;;;0.45;0.45;;;;;;;6.04;100.00;97687.09;4980659;28;20129;-73
2024/01/03 00:32:51;;;;;;;0.40;0.40;;;;;;;6.05;100.00;97687.91;4980162;28;20096;-74
2024/01/03 00:35:17;;;;;;;0.50;0.50;;;;;;;6.04;100.00;97694.28;4980407;28;20018;-74
2024/01/03 00:37:45;;;;;;;0.40;0.40;;;;;;;6.00;100.00;97691.22;4996236;28;20034;-74
2024/01/03 00:40:30;;;;;;;0.40;0.40;;;;;;;6.04;100.00;97689.75;4995684;28;20042;-74
2024/01/03 00:42:56;;;;;;;0.40;0.40;;;;;;;6.00;100.00;97691.22;4996182;28;20038;-74
2024/01/03 00:45:22;;;;;;;0.50;0.50;;;;;;;5.95;100.00;97683.06;4996235;28;20443;-74
2024/01/03 00:47:53;;;;;;;0.40;0.40;;;;;;;5.88;100.00;97693.00;4996502;28;20041;-75
2024/01/03 00:50:18;;;;;;;0.40;0.40;;;;;;;5.86;100.00;97679.84;5012265;28;20037;-74
2024/01/03 00:52:44;;;;;;;0.40;0.40;;;;;;;5.75;100.00;97677.13;4995884;28;20180;-74
2024/01/03 00:55:11;;;;;;;0.47;0.47;;;;;;;5.67;100.00;97672.88;4996080;28;20044;-74
2024/01/03 00:57:40;;;;;;;0.40;0.40;;;;;;;5.69;100.00;97679.63;4964486;28;20095;-74
2024/01/03 01:00:06;;;;;;;0.43;0.43;;;;;;;5.75;100.00;97679.78;4979441;28;20037;-74
2024/01/03 01:02:32;;;;;;;0.50;0.50;;;;;;;5.81;100.00;97679.72;4995764;28;20369;-73
2024/01/03 01:04:58;;;;;;;0.40;0.40;;;;;;;5.88;100.00;97685.78;5012290;28;20042;-74
2024/01/03 01:07:26;;;;;;;0.40;0.40;;;;;;;5.92;100.00;97678.16;4980008;28;20056;-73
2024/01/03 01:09:54;;;;;;;0.40;0.40;;;;;;;5.94;100.00;97679.59;4979564;28;20038;-74
2024/01/03 01:12:23;;;;;;;0.40;0.40;;;;;;;6.00;100.00;97674.41;4979915;28;20042;-74
2024/01/03 01:14:48;;;;;;;0.40;0.40;;;;;;;6.03;100.00;97681.97;4983959;28;20030;-74
2024/01/03 01:17:17;;;;;;;0.40;0.40;;;;;;;6.03;100.00;97671.31;4983633;28;20045;-74
2024/01/03 01:19:42;;;;;;;0.43;0.43;;;;;;;5.97;100.00;97665.00;4983387;28;20052;-74
2024/01/03 01:22:08;;;;;;;0.50;0.50;;;;;;;5.93;100.00;97669.97;4983718;28;20535;-74
2024/01/03 01:24:35;;;;;;;0.40;0.40;;;;;;;5.83;100.00;97672.31;4999923;28;20041;-74
2024/01/03 01:27:00;;;;;;;0.40;0.40;;;;;;;5.76;100.00;97670.75;4983319;28;20037;-74
2024/01/03 01:29:26;;;;;;;0.50;0.50;;;;;;;5.67;100.00;97673.69;4983574;28;20030;-74
2024/01/03 01:31:52;;;;;;;0.40;0.40;;;;;;;5.62;100.00;97684.19;4983035;28;20030;-74
2024/01/03 01:34:18;;;;;;;0.40;0.40;;;;;;;5.63;100.00;97685.81;4983712;28;20048;-73
2024/01/03 01:36:43;;;;;;;0.50;0.50;;;;;;;5.61;100.00;97687.91;4999101;28;20049;-74
2024/01/03 01:39:09;;;;;;;0.50;0.50;;;;;;;5.66;100.00;97695.22;4999051;28;20116;-73
2024/01/03 01:41:35;;;;;;;0.40;0.40;;;;;;;5.75;100.00;97699.25;4983465;28;20072;-74
2024/01/03 01:44:00;;;;;;;0.50;0.50;;;;;;;5.83;100.00;97695.50;4983311;28;20039;-73
2024/01/03 01:46:26;;;;;;;0.35;0.35;;;;;;;5.87;100.00;97699.34;4999487;28;20041;-74
2024/01/03 01:48:53;;;;;;;0.50;0.50;;;;;;;5.90;100.00;97697.06;5014965;28;20030;-74
2024/01/03 01:51:19;;;;;;;0.40;0.40;;;;;;;5.95;100.00;97701.75;4998815;28;20144;-73
2024/01/03 01:53:44;;;;;;;0.40;0.40;;;;;;;5.98;100.00;97701.31;4982764;28;20042;-74
2024/01/03 01:56:10;;;;;;;0.50;0.50;;;;;;;6.02;100.00;97702.50;4999380;28;20034;-74
2024/01/03 01:58:43;;;;;;;0.50;0.50;;;;;;;6.06;100.00;97710.84;4998427;28;20034;-74
2024/01/03 02:01:09;;;;;;;0.40;0.40;;;;;;;6.07;100.00;97697.31;5015854;28;20099;-75
2024/01/03 02:03:36;;;;;;;0.50;0.50;;;;;;;6.08;100.00;97712.28;4999067;28;20530;-74
2024/01/03 02:06:03;;;;;;;0.40;0.40;;;;;;;6.06;100.00;97706.38;4998965;28;20049;-74
2024/01/03 02:08:30;;;;;;;0.40;0.40;;;;;;;6.05;100.00;97704.72;4998616;28;20033;-74
2024/01/03 02:10:56;;;;;;;0.40;0.40;;;;;;;6.03;100.00;97708.63;4982834;28;20152;-74
2024/01/03 02:13:22;;;;;;;0.40;0.40;;;;;;;5.98;100.00;97704.00;4998817;28;20116;-74
2024/01/03 02:15:47;;;;;;;0.40;0.40;;;;;;;5.96;100.00;97711.38;4982551;28;20055;-74
2024/01/03 02:18:20;;;;;;;0.40;0.40;;;;;;;5.88;100.00;97709.78;5014635;28;20040;-74
2024/01/03 02:20:49;;;;;;;0.40;0.40;;;;;;;5.83;100.00;97712.31;4998767;28;20033;-74
2024/01/03 02:23:15;;;;;;;0.40;0.40;;;;;;;5.77;100.00;97715.84;4982512;28;20389;-74
2024/01/03 02:25:41;;;;;;;0.40;0.40;;;;;;;5.68;100.00;97717.16;4981527;28;20041;-73
2024/01/03 02:28:09;;;;;;;0.50;0.50;;;;;;;5.52;100.00;97707.88;4982471;28;20034;-74
2024/01/03 02:30:35;;;;;;;0.40;0.40;;;;;;;5.43;100.00;97714.50;4998563;28;20029;-74
2024/01/03 02:33:01;;;;;;;0.50;0.50;;;;;;;5.39;100.00;97715.97;4982064;28;20030;-74
2024/01/03 02:35:27;;;;;;;0.40;0.40;;;;;;;5.46;100.00;97711.41;4982224;28;20041;-74
2024/01/03 02:37:53;;;;;;;0.50;0.50;;;;;;;5.51;100.00;97717.72;4982419;28;20104;-74
2024/01/03 02:40:19;;;;;;;0.40;0.40;;;;;;;5.52;100.00;97721.19;4982275;28;20065;-74
2024/01/03 02:42:47;;;;;;;0.40;0.40;;;;;;;5.56;100.00;97721.56;4982254;28;20456;-74
2024/01/03 02:45:13;;;;;;;0.40;0.40;;;;;;;5.59;100.00;97723.81;4998007;28;20049;-74
2024/01/03 02:47:39;;;;;;;0.40;0.40;;;;;;;5.66;100.00;97722.72;4981880;28;20034;-74
2024/01/03 02:50:05;;;;;;;0.43;0.43;;;;;;;5.70;100.00;97734.56;4981989;28;20030;-74
2024/01/03 02:52:31;;;;;;;0.40;0.40;;;;;;;5.73;100.00;97725.31;4981881;28;20030;-74
2024/01/03 02:54:56;;;;;;;0.40;0.40;;;;;;;5.75;100.00;97738.44;4981833;28;20088;-74
2024/01/03 02:57:25;;;;;;;0.50;0.50;;;;;;;5.74;100.00;97732.25;4981369;28;20434;-74
2024/01/03 02:59:53;;;;;;;0.40;0.40;;;;;;;5.77;100.00;97733.69;4997881;28;20034;-74
2024/01/03 03:02:18;;;;;;;0.40;0.40;;;;;;;5.78;100.00;97732.66;5014217;28;20429;-74
2024/01/03 03:04:44;;;;;;;0.40;0.40;;;;;;;5.81;100.00;97737.56;4981647;28;20180;-74
2024/01/03 03:07:10;;;;;;;0.43;0.43;;;;;;;5.83;100.00;97733.63;4981316;28;20143;-74
2024/01/03 03:09:35;;;;;;;0.40;0.40;;;;;;;5.87;100.00;97734.00;4981602;28;20030;-74
2024/01/03 03:12:01;;;;;;;0.40;0.40;;;;;;;5.89;100.00;97724.75;4981593;28;20487;-74
2024/01/03 03:14:27;;;;;;;0.40;0.40;;;;;;;5.92;100.00;97728.81;4981625;28;20121;-74
2024/01/03 03:16:55;;;;;;;0.40;0.40;;;;;;;5.94;100.00;97735.59;4997311;28;20030;-74
2024/01/03 03:19:23;;;;;;;0.40;0.40;;;;;;;5.97;100.00;97739.69;4997322;28;20388;-74
2024/01/03 03:21:49;;;;;;;0.50;0.50;;;;;;;5.93;100.00;97739.31;4981117;28;20022;-74
2024/01/03 03:24:18;;;;;;;0.50;0.50;;;;;;;5.87;100.00;97740.13;4981486;28;20040;-74
2024/01/03 03:26:44;;;;;;;0.40;0.40;;;;;;;5.85;100.00;97746.75;4981159;28;20036;-74
2024/01/03 03:29:12;;;;;;;0.40;0.40;;;;;;;5.84;100.00;97748.59;4981374;28;20034;-74
2024/01/03 03:31:40;;;;;;;0.40;0.40;;;;;;;5.85;100.00;97746.75;4981098;28;20033;-74
2024/01/03 03:34:08;;;;;;;0.40;0.40;;;;;;;5.89;100.00;97746.06;4981124;28;20030;-74
2024/01/03 03:36:34;;;;;;;0.40;0.40;;;;;;;5.93;100.00;97752.66;4996037;28;20470;-74
2024/01/03 03:39:00;;;;;;;0.40;0.40;;;;;;;5.96;100.00;97751.41;4981060;28;20055;-74
2024/01/03 03:41:26;;;;;;;0.40;0.40;;;;;;;5.94;100.00;97750.78;4981051;28;20038;-75
2024/01/03 03:43:52;;;;;;;0.40;0.40;;;;;;;5.93;100.00;97746.47;4981109;28;20042;-74
2024/01/03 03:46:18;;;;;;;0.40;0.40;;;;;;;5.95;100.00;97752.41;4997266;28;20495;-74
2024/01/03 03:48:44;;;;;;;0.40;0.40;;;;;;;5.96;100.00;97753.25;4980885;28;20045;-75
2024/01/03 03:51:12;;;;;;;0.40;0.40;;;;;;;5.97;100.00;97758.34;4980841;28;20044;-74
2024/01/03 03:53:40;;;;;;;0.40;0.40;;;;;;;5.96;100.00;97754.06;4996929;28;20046;-74
2024/01/03 03:56:09;;;;;;;0.40;0.40;;;;;;;5.99;100.00;97758.13;4980351;28;20057;-74
2024/01/03 03:58:34;;;;;;;0.40;0.40;;;;;;;6.00;100.00;97759.75;4980722;28;20103;-74
2024/01/03 04:01:00;;;;;;;0.40;0.40;;;;;;;6.03;100.00;97760.13;4996739;28;20033;-74
2024/01/03 04:03:26;;;;;;;0.40;0.40;;;;;;;6.06;100.00;97757.03;4996736;28;20073;-74
2024/01/03 04:05:51;;;;;;;0.40;0.40;;;;;;;6.08;100.00;97760.28;4980114;28;20120;-74
2024/01/03 04:08:17;;;;;;;0.50;0.50;;;;;;;6.09;100.00;97761.94;4980487;28;20483;-74
2024/01/03 04:10:43;;;;;;;0.40;0.40;;;;;;;6.08;100.00;97762.94;4980550;28;20564;-74
2024/01/03 04:13:08;;;;;;;0.40;0.40;;;;;;;6.12;100.00;97769.50;4980198;28;20030;-74
2024/01/03 04:15:39;;;;;;;0.40;0.40;;;;;;;6.12;100.00;97769.50;4980007;28;20044;-74
2024/01/03 04:18:05;;;;;;;0.30;0.30;;;;;;;6.12;100.00;97774.03;4980720;28;20099;-74
2024/01/03 04:20:36;;;;;;;0.40;0.40;;;;;;;6.08;100.00;97770.94;4996309;28;20443;-76
2024/01/03 04:23:04;;;;;;;0.50;0.50;;;;;;;6.07;100.00;97769.34;4980631;28;20030;-74
2024/01/03 04:25:30;;;;;;;0.50;0.50;;;;;;;6.05;100.00;97774.06;4980323;28;20034;-75
2024/01/03 04:27:56;;;;;;;0.50;0.50;;;;;;;6.01;100.00;97764.88;4980314;28;20030;-73
2024/01/03 04:30:24;;;;;;;0.40;0.40;;;;;;;6.00;100.00;97773.91;4980329;28;20057;-74
2024/01/03 04:32:49;;;;;;;0.40;0.40;;;;;;;5.94;100.00;97775.59;4980012;28;20029;-74
2024/01/03 04:35:15;;;;;;;0.45;0.45;;;;;;;5.91;100.00;97780.53;4980326;28;20531;-74
2024/01/03 04:37:44;;;;;;;0.50;0.50;;;;;;;5.89;100.00;97779.94;4980037;28;20057;-73
2024/01/03 04:40:11;;;;;;;0.40;0.40;;;;;;;5.88;100.00;97779.13;4980264;28;20045;-73
2024/01/03 04:42:36;;;;;;;0.40;0.40;;;;;;;5.92;100.00;97782.16;4996544;28;20038;-73
2024/01/03 04:45:03;;;;;;;0.40;0.40;;;;;;;5.94;100.00;97782.78;4981059;28;20526;-74
2024/01/03 04:47:29;;;;;;;0.40;0.40;;;;;;;5.99;100.00;97790.97;4996519;28;20116;-73
2024/01/03 04:49:55;;;;;;;0.40;0.40;;;;;;;6.05;100.00;97795.41;4984387;28;20120;-74
2024/01/03 04:52:23;;;;;;;0.40;0.40;;;;;;;6.07;100.00;97787.19;4984065;28;20504;-74
2024/01/03 04:54:48;;;;;;;0.40;0.40;;;;;;;6.08;100.00;97800.28;4983926;28;20042;-74
2024/01/03 04:57:14;;;;;;;0.40;0.40;;;;;;;6.08;100.00;97794.97;4999357;28;20132;-73
2024/01/03 04:59:40;;;;;;;0.40;0.40;;;;;;;6.11;100.00;97796.38;4984230;28;20053;-74
2024/01/03 05:02:06;;;;;;;0.40;0.40;;;;;;;6.13;100.00;97800.47;4984145;28;20037;-74
2024/01/03 05:04:31;;;;;;;0.40;0.40;;;;;;;6.16;100.00;97804.53;4983629;28;20038;-74
2024/01/03 05:06:57;;;;;;;0.40;0.40;;;;;;;6.15;100.00;97798.41;4983840;28;20040;-73
2024/01/03 05:09:23;;;;;;;0.40;0.40;;;;;;;6.16;100.00;97812.53;4983912;28;20384;-74
2024/01/03 05:11:53;;;;;;;0.40;0.40;;;;;;;6.14;100.00;97807.44;5015853;28;20030;-73
2024/01/03 05:14:18;;;;;;;0.45;0.45;;;;;;;6.14;100.00;97814.63;5015946;28;20105;-73
2024/01/03 05:16:44;;;;;;;0.40;0.40;;;;;;;6.15;100.00;97816.25;4983420;28;20536;-74
2024/01/03 05:19:10;;;;;;;0.40;0.40;;;;;;;6.14;100.00;97819.97;4983571;28;20022;-74
2024/01/03 05:21:35;;;;;;;0.40;0.40;;;;;;;6.13;100.00;97821.78;4983424;28;20045;-74
2024/01/03 05:24:01;;;;;;;0.50;0.50;;;;;;;6.14;100.00;97820.78;4983712;28;20044;-73
2024/01/03 05:26:27;;;;;;;0.30;0.30;;;;;;;6.15;100.00;97825.06;4983809;28;20461;-73
2024/01/03 05:28:52;;;;;;;0.40;0.40;;;;;;;6.16;100.00;97829.34;4999459;28;20042;-73
2024/01/03 05:31:19;;;;;;;0.50;0.50;;;;;;;6.19;100.00;97829.97;4983581;28;20049;-73
2024/01/03 05:33:47;;;;;;;0.45;0.45;;;;;;;6.19;100.00;97828.09;4983631;28;20095;-73
2024/01/03 05:36:17;;;;;;;0.40;0.40;;;;;;;6.18;100.00;97837.16;4983199;28;20395;-73
2024/01/03 05:38:42;;;;;;;0.40;0.40;;;;;;;6.16;100.00;97840.03;4983375;28;20100;-73
2024/01/03 05:41:11;;;;;;;0.40;0.40;;;;;;;6.14;100.00;97842.13;4984139;28;20037;-74
2024/01/03 05:43:37;;;;;;;0.50;0.50;;;;;;;6.12;100.00;97838.84;4983353;28;20092;-73
2024/01/03 05:46:03;;;;;;;0.45;0.45;;;;;;;6.15;100.00;97849.06;4982869;28;20091;-73
2024/01/03 05:48:29;;;;;;;0.40;0.40;;;;;;;6.20;100.00;97845.75;4999544;28;20034;-74
2024/01/03 05:50:57;;;;;;;0.40;0.40;;;;;;;6.21;100.00;97839.38;4983295;28;20084;-73
2024/01/03 05:53:23;;;;;;;0.40;0.40;;;;;;;6.21;100.00;97847.38;4983077;28;20083;-73
2024/01/03 05:55:50;;;;;;;0.38;0.38;;;;;;;6.15;100.00;97849.06;4982813;28;20041;-73
2024/01/03 05:58:16;;;;;;;0.47;0.47;;;;;;;6.14;100.00;97855.47;4999542;28;20026;-73
2024/01/03 06:00:42;;;;;;;0.50;0.50;;;;;;;6.16;100.00;97856.03;4997981;28;20117;-73
2024/01/03 06:03:07;;;;;;;0.40;0.40;;;;;;;6.20;100.00;97858.28;4982926;28;20385;-73
2024/01/03 06:05:33;;;;;;;0.40;0.40;;;;;;;6.24;100.00;97862.13;4982258;28;20057;-73
2024/01/03 06:07:59;;;;;;;0.47;0.47;;;;;;;6.24;100.00;97870.16;4983018;28;20033;-73
2024/01/03 06:10:25;;;;;;;0.40;0.40;;;;;;;6.24;100.00;97867.47;4999046;28;20046;-73
2024/01/03 06:12:50;;;;;;;0.50;0.50;;;;;;;6.25;100.00;97877.13;4982379;28;20038;-73
2024/01/03 06:15:19;;;;;;;0.50;0.50;;;;;;;6.21;100.00;97878.59;4998709;28;20044;-73
2024/01/03 06:17:44;;;;;;;0.40;0.40;;;;;;;6.16;100.00;97881.91;4999006;28;20036;-73
2024/01/03 06:20:10;;;;;;;0.50;0.50;;;;;;;6.16;100.00;97881.91;4982852;28;20041;-74
2024/01/03 06:22:36;;;;;;;0.40;0.40;;;;;;;6.09;100.00;97884.63;4998557;28;20038;-74
2024/01/03 06:25:01;;;;;;;0.40;0.40;;;;;;;6.10;100.00;97893.47;4982720;28;20092;-75
2024/01/03 06:27:42;;;;;;;0.40;0.40;;;;;;;6.08;100.00;97888.31;4983133;28;20120;-75
2024/01/03 06:30:09;;;;;;;0.40;0.40;;;;;;;6.13;100.00;97898.34;4998125;28;20485;-72
2024/01/03 06:32:37;;;;;;;0.40;0.40;;;;;;;6.16;100.00;97898.72;4981994;28;20366;-75
2024/01/03 06:35:10;;;;;;;0.40;0.40;;;;;;;6.19;100.00;97902.00;4999656;28;20530;-76
2024/01/03 06:37:36;;;;;;;0.50;0.50;;;;;;;6.17;100.00;97907.56;5014239;28;20573;-75
2024/01/03 06:40:02;;;;;;;0.40;0.40;;;;;;;6.19;100.00;97907.34;5014368;28;20058;-74
2024/01/03 06:42:28;;;;;;;0.40;0.40;;;;;;;6.20;100.00;97914.31;4998437;28;20080;-72
2024/01/03 06:44:53;;;;;;;0.47;0.47;;;;;;;6.17;100.00;97912.91;4981888;28;20396;-75
2024/01/03 06:47:20;;;;;;;0.50;0.50;;;;;;;6.13;100.00;97928.50;4997552;28;20038;-75
2024/01/03 06:49:46;;;;;;;0.50;0.50;;;;;;;6.10;100.00;97925.47;4998313;28;20353;-75
2024/01/03 06:52:11;;;;;;;0.40;0.40;;;;;;;6.00;100.00;97923.28;4998105;28;20041;-75
2024/01/03 06:54:37;;;;;;;0.40;0.40;;;;;;;5.93;100.00;97930.50;4982159;28;20088;-75
2024/01/03 06:57:03;;;;;;;0.40;0.40;;;;;;;5.94;100.00;97942.81;4981569;28;20033;-75
2024/01/03 06:59:34;;;;;;;0.40;0.40;;;;;;;5.93;100.00;97946.50;4981832;28;20121;-75
2024/01/03 07:02:01;;;;;;;0.40;0.40;;;;;;;5.88;100.00;97939.13;5014173;28;20107;-75
2024/01/03 07:04:26;;;;;;;0.40;0.40;;;;;;;5.80;100.00;97949.25;5013364;28;20476;-75
2024/01/03 07:06:52;;;;;;;0.40;0.40;;;;;;;5.66;100.00;97945.81;4981778;28;20125;-75
2024/01/03 07:09:19;;;;;;;0.50;0.50;;;;;;;5.55;100.00;97949.97;4981683;28;20060;-75
2024/01/03 07:11:44;;;;;;;0.50;0.50;;;;;;;5.50;100.00;97963.09;4981241;28;20058;-74
2024/01/03 07:14:12;;;;;;;0.40;0.40;;;;;;;5.48;100.00;97965.19;4997643;28;20523;-75
2024/01/03 07:16:38;;;;;;;0.50;0.50;;;;;;;5.54;100.00;97969.66;4981811;28;20092;-75
2024/01/03 07:19:04;;;;;;;0.40;0.40;;;;;;;5.61;100.00;97970.44;5013526;28;20114;-74
2024/01/03 07:21:30;;;;;;;0.40;0.40;;;;;;;5.69;100.00;97977.38;4997680;28;20030;-75
2024/01/03 07:23:56;;;;;;;0.40;0.40;;;;;;;5.72;100.00;97985.78;4981472;28;20088;-75
2024/01/03 07:26:22;;;;;;;0.43;0.43;;;;;;;5.73;100.00;97982.06;4997012;28;20038;-75
2024/01/03 07:28:51;;;;;;;0.50;0.50;;;;;;;5.71;100.00;97988.63;4997052;28;20417;-75
2024/01/03 07:31:20;;;;;;;0.40;0.40;;;;;;;5.69;100.00;97993.38;4982387;28;20048;-75
2024/01/03 07:33:47;;;;;;;0.40;0.40;;;;;;;5.70;100.00;98003.81;4981008;28;20037;-75
2024/01/03 07:36:13;;;;;;;0.30;0.30;;;;;;;5.62;100.00;98008.59;4980762;28;20033;-77
2024/01/03 07:38:44;;;;;;;0.40;0.40;;;;;;;5.51;100.00;98018.88;4982003;28;20398;-75
2024/01/03 07:41:24;;;;;;;0.45;0.45;;;;;;;5.44;100.00;98022.56;5013418;28;20053;-75
2024/01/03 07:43:51;;;;;;;0.40;0.40;;;;;;;5.41;100.00;98023.81;4981470;28;20037;-75
2024/01/03 07:46:26;;;;;;;0.40;0.40;;;;;;;5.42;100.00;98028.09;4980754;28;20033;-75
2024/01/03 07:48:51;;;;;;;0.45;0.45;;;;;;;5.41;100.00;98034.47;4997276;28;20041;-75
2024/01/03 07:51:18;;;;;;;0.40;0.40;;;;;;;5.44;100.00;98043.91;4981047;28;20033;-75
2024/01/03 07:53:44;;;;;;;0.40;0.40;;;;;;;5.38;100.00;98050.06;4981014;28;20034;-75
2024/01/03 07:56:11;;;;;;;0.40;0.40;;;;;;;5.22;100.00;98044.16;4996463;28;20034;-75
2024/01/03 07:58:39;;;;;;;0.40;0.40;;;;;;;5.12;100.00;98046.44;4980869;28;20140;-75
2024/01/03 08:01:05;;;;;;;0.40;0.40;;;;;;;5.10;100.00;98053.78;4980882;28;20057;-75
2024/01/03 08:03:30;;;;;;;0.40;0.40;;;;;;;5.11;100.00;98054.59;4980275;28;20476;-75
2024/01/03 08:05:56;;;;;;;0.40;0.40;;;;;;;5.02;100.00;98057.50;4980100;28;20033;-77
2024/01/03 08:08:38;;;;;;;0.40;0.40;;;;;;;5.00;100.00;98062.22;4980624;28;20057;-75
2024/01/03 08:14:29;;;;;;;0.50;0.50;;;;;;;4.88;100.00;98079.03;5013624;28;20026;-74
2024/01/03 08:16:57;;;;;;;0.50;0.50;;;;;;;4.86;100.00;98087.19;4980787;28;20091;-74
2024/01/03 08:19:23;;;;;;;0.40;0.40;;;;;;;4.89;100.00;98094.78;4980929;28;20392;-74
2024/01/03 08:21:49;;;;;;;0.50;0.50;;;;;;;4.84;100.00;98092.75;4980285;28;20488;-76
2024/01/03 08:24:17;;;;;;;0.40;0.40;;;;;;;4.71;100.00;98098.06;4979498;28;20124;-74
2024/01/03 08:26:47;;;;;;;0.40;0.40;;;;;;;4.54;100.00;98099.47;4981094;28;20465;-74
2024/01/03 08:29:13;;;;;;;0.50;0.50;;;;;;;4.43;100.00;98106.19;4980007;28;20069;-74
2024/01/03 08:31:39;;;;;;;0.40;0.40;;;;;;;4.32;100.00;98110.25;4980063;28;20077;-76
2024/01/03 08:34:05;;;;;;;0.40;0.40;;;;;;;4.34;100.00;98121.53;4980489;28;20081;-77
2024/01/03 08:36:43;;;;;;;0.55;0.55;;;;;;;4.36;100.00;98102.69;4997122;28;20480;-75
2024/01/03 08:39:09;;;;;;;0.40;0.40;;;;;;;4.55;100.00;98128.53;5012264;28;20029;-75
2024/01/03 08:41:35;;;;;;;0.40;0.40;;;;;;;4.54;100.00;98128.72;4979911;28;20038;-75
2024/01/03 08:44:07;;;;;;;0.40;0.40;;;;;;;4.62;100.00;98136.53;4996073;28;20060;-75
2024/01/03 08:46:39;;;;;;;0.50;0.50;;;;;;;4.84;100.00;98135.34;4980827;28;20049;-74
2024/01/03 08:49:08;;;;;;;0.40;0.40;;;;;;;5.03;100.00;98141.72;4980906;28;20033;-74
2024/01/03 08:51:35;;;;;;;0.40;0.40;;;;;;;5.20;100.00;98147.44;4996158;28;20469;-75
2024/01/03 08:54:04;;;;;;;0.50;0.50;;;;;;;5.28;100.00;98146.41;4996280;28;20069;-75
2024/01/03 08:56:30;;;;;;;0.50;0.50;;;;;;;5.32;100.00;98152.13;4980290;28;20070;-75
2024/01/03 08:58:56;;;;;;;0.50;0.50;;;;;;;5.23;100.00;98157.69;4995855;28;20034;-74
2024/01/03 09:01:23;;;;;;;0.50;0.50;;;;;;;5.09;100.00;98156.03;4980079;28;20535;-75
2024/01/03 09:03:49;;;;;;;0.40;0.40;;;;;;;5.10;100.00;98160.34;4980057;28;20026;-74
2024/01/03 09:06:25;;;;;;;0.40;0.40;;;;;;;5.14;100.00;98164.25;4996001;28;20037;-74
2024/01/03 09:08:52;;;;;;;0.40;0.40;;;;;;;5.14;100.00;98166.09;4980636;28;20116;-74
2024/01/03 09:11:28;;;;;;;0.50;0.50;;;;;;;5.05;100.00;98178.78;4995447;28;20065;-75
2024/01/03 09:13:56;;;;;;;0.40;0.40;;;;;;;5.00;100.00;98175.91;4995890;28;20033;-74
2024/01/03 09:16:23;;;;;;;0.45;0.45;;;;;;;4.94;100.00;98184.69;4996467;28;20040;-74
2024/01/03 09:18:52;;;;;;;0.50;0.50;;;;;;;5.00;100.00;98191.88;4995958;28;20537;-73
2024/01/03 09:21:19;;;;;;;0.50;0.50;;;;;;;5.15;100.00;98191.69;5011929;28;20084;-73
2024/01/03 09:23:44;;;;;;;0.50;0.50;;;;;;;5.36;100.00;98193.34;4996196;28;20040;-74
2024/01/03 09:26:11;;;;;;;0.50;0.50;;;;;;;5.53;100.00;98193.75;4979911;28;20121;-73
2024/01/03 09:28:38;;;;;;;0.50;0.50;;;;;;;5.72;100.00;98207.06;4996203;28;20038;-73
2024/01/03 09:31:05;;;;;;;0.43;0.43;;;;;;;5.84;100.00;98201.09;4979999;28;20124;-73
2024/01/03 09:33:31;;;;;;;0.50;0.50;;;;;;;5.91;100.00;98200.06;4995809;28;20034;-74
2024/01/03 09:35:56;;;;;;;0.40;0.40;;;;;;;5.99;100.00;98207.03;4999086;28;20114;-75
2024/01/03 09:38:22;;;;;;;0.40;0.40;;;;;;;6.02;100.00;98201.28;4983372;28;20061;-73
2024/01/03 09:40:54;;;;;;;0.40;0.40;;;;;;;6.07;100.00;98209.47;4998527;28;20038;-75
2024/01/03 09:43:20;;;;;;;0.50;0.50;;;;;;;6.12;100.00;98215.00;4983376;28;20503;-75
2024/01/03 09:45:50;;;;;;;0.40;0.40;;;;;;;6.20;100.00;98213.16;4982065;28;20073;-76
2024/01/03 09:48:15;;;;;;;0.40;0.40;;;;;;;6.24;100.00;98220.50;5013637;28;20045;-75
2024/01/03 09:50:43;;;;;;;0.40;0.40;;;;;;;6.26;100.00;98228.31;4981167;28;20034;-77
2024/01/03 09:53:12;;;;;;;0.50;0.50;;;;;;;6.25;100.00;98226.69;4996661;28;20033;-77
2024/01/03 09:55:38;;;;;;;0.40;0.40;;;;;;;6.25;100.00;98230.16;4981092;28;20125;-76
2024/01/03 09:58:04;;;;;;;0.40;0.40;;;;;;;6.21;100.00;98236.13;5013750;28;20081;-77
2024/01/03 10:00:31;;;;;;;0.40;0.40;;;;;;;6.19;100.00;98238.19;4982495;28;20057;-76
2024/01/03 10:03:11;;;;;;;0.40;0.40;;;;;;;6.23;100.00;98242.91;5015509;28;20034;-76
2024/01/03 10:05:37;;;;;;;0.50;0.50;;;;;;;6.29;100.00;98243.91;4998974;28;20124;-75
2024/01/03 10:08:19;;;;;;;0.50;0.50;;;;;;;6.32;100.00;98248.81;4982943;28;20030;-75
2024/01/03 10:10:48;;;;;;;0.40;0.40;;;;;;;6.33;100.00;98259.28;5000514;28;20103;-75
2024/01/03 10:13:27;;;;;;;0.40;0.40;;;;;;;6.29;100.00;98250.06;5015775;28;20030;-75
2024/01/03 10:15:54;;;;;;;0.40;0.40;;;;;;;6.41;100.00;98258.25;4983464;28;20381;-78
2024/01/03 10:18:21;;;;;;;0.47;0.47;;;;;;;6.56;100.00;98266.81;4982818;28;20029;-77
2024/01/03 10:20:47;;;;;;;0.50;0.50;;;;;;;7.09;100.00;98278.28;4982863;28;20061;-76
2024/01/03 10:23:14;;;;;;;0.50;0.50;;;;;;;7.43;100.00;98285.88;5014884;28;20105;-77
2024/01/03 10:25:42;;;;;;;0.50;0.50;;;;;;;7.37;100.00;98291.28;4998794;28;20099;-77
2024/01/03 10:28:26;;;;;;;0.50;0.50;;;;;;;7.24;100.00;98294.84;4982559;28;20026;-75
2024/01/03 10:30:53;;;;;;;0.40;0.40;;;;;;;7.16;100.00;98303.13;4998443;28;20075;-76
2024/01/03 10:33:20;;;;;;;0.45;0.45;;;;;;;7.14;100.00;98305.19;4998363;28;20076;-75
2024/01/03 10:35:46;;;;;;;0.50;0.50;;;;;;;7.13;100.00;98311.56;4982240;28;20455;-75
2024/01/03 10:38:15;;;;;;;0.40;0.40;;;;;;;7.19;100.00;98318.72;5014481;28;20037;-75
2024/01/03 10:40:44;;;;;;;0.40;0.40;;;;;;;7.23;100.00;98315.41;4999257;28;20050;-76
2024/01/03 10:43:11;;;;;;;0.40;0.40;;;;;;;7.22;100.00;98316.47;4982302;28;20033;-76
2024/01/03 10:45:37;;;;;;;0.40;0.40;;;;;;;7.16;100.00;98324.50;5014265;28;20042;-76
2024/01/03 10:48:04;;;;;;;0.40;0.40;;;;;;;6.99;100.00;98335.69;4982246;28;20037;-74
2024/01/03 10:50:30;;;;;;;0.50;0.50;;;;;;;6.89;100.00;98343.31;4981331;28;20045;-76
2024/01/03 10:52:57;;;;;;;0.50;0.50;;;;;;;6.81;100.00;98344.38;4998145;28;20032;-76
2024/01/03 10:55:36;;;;;;;0.50;0.50;;;;;;;6.74;100.00;98348.09;5014129;28;20057;-76
2024/01/03 10:58:09;;;;;;;0.50;0.50;;;;;;;6.66;100.00;98357.16;4981993;28;20068;-77
2024/01/03 11:01:07;;;;;;;0.50;0.50;;;;;;;6.66;100.00;98359.81;5013962;28;20516;-75
2024/01/03 11:04:04;;;;;;;0.50;0.50;;;;;;;6.60;100.00;98361.47;4997785;28;20040;-75
2024/01/03 11:06:45;;;;;;;0.43;0.43;;;;;;;6.48;100.00;98354.31;4997725;28;20034;-76
2024/01/03 11:09:10;;;;;;;0.40;0.40;;;;;;;6.59;100.00;98373.19;4997874;28;20042;-77
2024/01/03 11:11:39;;;;;;;0.40;0.40;;;;;;;6.60;100.00;98376.69;5013488;28;20432;-75
2024/01/03 11:14:18;;;;;;;0.40;0.40;;;;;;;6.59;100.00;98380.41;4997688;28;20133;-76
2024/01/03 11:16:47;;;;;;;0.50;0.50;;;;;;;6.56;100.00;98384.31;4997739;28;20072;-76
2024/01/03 11:19:13;;;;;;;0.50;0.50;;;;;;;6.60;100.00;98385.50;5014000;28;20033;-75
2024/01/03 11:21:40;;;;;;;0.50;0.50;;;;;;;6.78;100.00;98394.72;4965559;28;20504;-75
2024/01/03 11:24:09;;;;;;;0.50;0.50;;;;;;;7.10;100.00;98400.19;4981094;28;20034;-75
2024/01/03 11:32:07;;;;;;;0.50;0.50;;;;;;;7.85;100.00;98405.75;5013673;28;20026;-76
2024/01/03 11:34:39;;;;;;;0.50;0.50;;;;;;;8.04;100.00;98403.97;4997145;28;20120;-76
2024/01/03 11:37:27;;;;;;;0.50;0.50;;;;;;;8.46;100.00;98410.47;4981305;28;20030;-76
2024/01/03 11:39:54;;;;;;;0.40;0.40;;;;;;;8.56;100.00;98416.16;4997202;28;20038;-76
2024/01/03 11:42:21;;;;;;;0.50;0.50;;;;;;;8.62;100.00;98413.63;4997215;28;20057;-75
2024/01/03 11:45:06;;;;;;;0.50;0.50;;;;;;;8.41;100.00;98407.63;4997194;28;20049;-75